Terminal Aerodrome Forecast
Issued by NWS

Home | Current Version | Previous Version | Text Only | Print | Product List | Glossary Off
Versions: 1 2 3 4 5 6 7 8 9 10 11 12 13 14

000
FTUS43 KGRB 131733
TAFATW
TAF
KATW 131733Z 1318/1418 32003KT P6SM SCT080 BKN200
     FM132300 VRB03KT P6SM SCT040 BKN070
     FM140400 18004KT P6SM -SN SCT018 OVC050
     FM140900 21004KT P6SM SCT050 BKN100
     FM141300 27006KT P6SM FEW100 SCT200=

USA.gov is the U.S. government's official web portal to all federal, state and local government web resources and services.